CHL6 weather

Public forecast

Using degrees Celsius for public forecast. Weather courtesy of forecast.io.

Closest aviation weather report (METAR) to Huntsville (North) Seaplane Base

Closest report is Muskoka Airport, 21.5 nm (39.8 km) S. Retrieved 2020/08/11 23:00 UTC (53 minutes ago):

CYQA 112300Z AUTO 28010KT 230V300 9SM CLR 23/13 A2990 RMK SLP124 DENSITY ALT 2000FT

Closest aviation forecast (TAF) to Huntsville (North) Seaplane Base

Closest forecast is Muskoka Airport, 21.5 nm (39.8 km) S. Retrieved 2020/08/11 20:00 UTC (4 hours ago):

TAF CYQA 111938Z 1120/1202 29012KT P6SM SCT020 BKN040 TEMPO 1120/1122 P6SM -SHRA BKN020 OVC040 FM112200 28012KT P6SM FEW040 RMK FCST BASED ON AUTO OBS NXT FCST WILL BE ISSUED AT 121145Z